首页
METAR-TAF:

METAR-TAF

机场 :

舊金山國際機場

旧金山, 加利福尼亚州, 美国

纬度: 37-37-11N, 经度: 122-21-53W, 海拔: 3米

当前天气观测

该预报发布于39分钟前的22:56 UTC
风速12节,风向西
温度 21°C
湿度 56%
气压 1017 hPa
能見度: 16.1公里
少量云层高于2100英尺

METAR: KSFO 152256Z 26012KT 10SM FEW021 21/12 A3002 RMK AO2 SLP164 T02060122

时间: 16:35 (23:35 UTC)

预报

该预报发布于3小时和4分钟前的20:31 UTC
预报有效从15日的 20点(UTC)到 16日的 24点(UTC)
风速8节,风向西转西南,有时为15节阵风
能見度: 10公里
少量云层高于2000英尺
从 15日的 2200点(UTC)
风速15节,风向西转西北
能見度: 10公里
少量云层高于1000英尺
从 16日的 0400点(UTC)
风速9节,风向西转西北
能見度: 10公里
散云层高于1500英尺
短暂存在
从 16日的 04点(UTC)到 16日的 06点(UTC)
多云层高于1000英尺
从 16日的 0600点(UTC)
风速6节,风向西转西北
能見度: 10公里
多云层高于1500英尺
从 16日的 1700点(UTC)
风速9节,风向西
能見度: 10公里
散云层高于1500英尺

TAF: KSFO 152031Z 1520/1624 25008G15KT P6SM FEW020 FM152200 30015KT P6SM FEW010 FM160400 29009KT P6SM SCT015 TEMPO 1604/1606 BKN010 FM160600 29006KT P6SM BKN015 FM161700 27009KT P6SM SCT015

超过4000个机场的气象观测和天气预报(METAR&TAF报告)。

可查询的气象台以黄色和红色小点在地图上表示。

将鼠标移到小点上方,可查看气象台名称。

然后点击查看天气观测和预报。

如需切换地图:点击带黑十字的绿色按钮放大地图;点击带横线的绿色按钮缩小地图;或者点击绿色箭头查看邻近地区的地图。


METAR-TAF: